Portada
METAR-TAF:

METAR-TAF

Aeroports :

Christchurch, Nova Zelanda

latitud: 43-29S, longitud: 172-33E, altitud: 38 m

Observació

L'informe es va fer fa 32 minuts, a les 01:00 UTC
Vent 21 kt del Nord-Oest amb ràfegues de 36 kt, variant entre Oest i Nord
Temperatura 20°C
Humitat 46%
Pressió 1000 hPa
Visibilitat 10 km o més

METAR: NZCH 160100Z AUTO 32021G36KT 280V010 9999 NCD 20/08 Q1000 NOSIG

Hora: 14:32 (01:32 UTC)

Pronòstic

L'informe es va fer fa 2 hores i 25 minuts, a les 23:07 UTC
Pronòstic vàlid del 16 a les 00 UTC al 17 a les 00 UTC
Vent 20 kt del Nord-Oest amb ràfegues de 30 kt
Visibilitat 10 km o més
sense núvols per sota de 1500 mi sense presència de cumulonimbus.
Evolucionant progressivament
l' 16 a les 09 UTC al 16 a les 11 UTC
Vent 10 kt del Oest
Evolucionant progressivament
l' 16 a les 15 UTC al 16 a les 17 UTC
Vent 8 kt del Nord/Nord-Est

TAF: NZCH 152307Z 1600/1700 32020G30KT CAVOK BECMG 1609/1611 28010KT BECMG 1615/1617 02008KT

Observacions i pronòstics meteorològics de més de 4000 aeroports (METAR i TAF).

Les estacions disponibles són els punts grocs i vermells al mapa.

Posi el ratolí al punt desitjat per veure el nom de l'estació.

Feu clic per veure les observacions i els pronòstics meteorològics.

Per canviar el mapa: feu clic els botons verds amb una creu de color negre per apropar; al botó verd amb un guió per allunyar la imatge; o en les fletxes verdes per a mapes adjacents.


METAR-TAF: